createdAt,value
2016-06-25T00:00:19.100Z,20.3
2016-06-25T00:03:38.483Z,20.2
2016-06-25T00:06:43.349Z,20.2
2016-06-25T00:09:58.010Z,20.2
2016-06-25T00:13:12.251Z,20.1
2016-06-25T00:16:26.794Z,20.1
2016-06-25T00:19:41.574Z,20.1
2016-06-25T00:22:56.055Z,20
2016-06-25T00:26:10.788Z,20
2016-06-25T00:29:23.491Z,20
2016-06-25T00:32:37.832Z,20
2016-06-25T00:35:52.513Z,19.9
2016-06-25T00:39:07.010Z,19.9
2016-06-25T00:42:21.571Z,19.9
2016-06-25T00:45:41.310Z,19.8
2016-06-25T00:48:46.099Z,19.7
2016-06-25T00:51:58.738Z,19.6
2016-06-25T00:55:14.813Z,19.6
2016-06-25T00:58:34.253Z,19.6
2016-06-25T01:01:39.083Z,19.6
2016-06-25T01:04:51.456Z,19.6
2016-06-25T01:08:05.368Z,19.6
2016-06-25T01:11:20.023Z,19.6
2016-06-25T01:14:39.510Z,19.6
2016-06-25T01:17:44.417Z,19.5
2016-06-25T01:20:58.743Z,19.5
2016-06-25T01:24:13.940Z,19.5
2016-06-25T01:27:33.500Z,19.4
2016-06-25T01:30:38.406Z,19.4
2016-06-25T01:33:52.913Z,19.4
2016-06-25T01:37:05.301Z,19.3
2016-06-25T01:40:20.054Z,19.3
2016-06-25T01:43:39.321Z,19.3
2016-06-25T01:46:44.300Z,19.3
2016-06-25T01:49:58.522Z,19.3
2016-06-25T01:53:13.128Z,19.3
2016-06-25T01:56:25.788Z,19.3
2016-06-25T01:59:40.447Z,19.2
2016-06-25T02:02:55.018Z,19.2
2016-06-25T02:06:09.807Z,19.2
2016-06-25T02:09:24.382Z,19.2
2016-06-25T02:12:36.672Z,19.2
2016-06-25T02:15:53.461Z,19.2
2016-06-25T02:19:08.079Z,19.1
2016-06-25T02:22:20.854Z,19.1
2016-06-25T02:25:40.438Z,19.1
2016-06-25T02:28:43.372Z,19.1
2016-06-25T02:31:59.976Z,19
2016-06-25T02:35:14.589Z,19
2016-06-25T02:38:34.033Z,19
2016-06-25T02:41:38.939Z,19
2016-06-25T02:44:53.445Z,19
2016-06-25T02:48:07.441Z,18.9
2016-06-25T02:51:20.546Z,18.9
2016-06-25T02:54:39.462Z,18.9
2016-06-25T02:57:42.485Z,18.8
2016-06-25T03:00:56.747Z,18.8
2016-06-25T03:04:13.601Z,18.7
2016-06-25T03:07:28.153Z,18.7
2016-06-25T03:10:42.663Z,18.7
2016-06-25T03:13:54.586Z,18.7
2016-06-25T03:17:09.240Z,18.7
2016-06-25T03:20:23.709Z,18.7
2016-06-25T03:23:43.089Z,18.7
2016-06-25T03:26:45.842Z,18.6
2016-06-25T03:30:02.553Z,18.6
2016-06-25T03:33:17.254Z,18.6
2016-06-25T03:36:36.915Z,18.6
2016-06-25T03:39:41.860Z,18.6
2016-06-25T03:42:56.392Z,18.6
2016-06-25T03:46:11.039Z,18.6
2016-06-25T03:49:23.419Z,18.6
2016-06-25T03:52:42.821Z,18.7
2016-06-25T03:55:47.668Z,18.7
2016-06-25T03:59:00.034Z,18.7
2016-06-25T04:02:14.496Z,18.7
2016-06-25T04:05:34.062Z,18.7
2016-06-25T04:08:38.877Z,18.7
2016-06-25T04:11:53.620Z,18.7
2016-06-25T04:15:08.183Z,18.8
2016-06-25T04:18:22.778Z,18.8
2016-06-25T04:21:42.158Z,18.8
2016-06-25T04:24:46.993Z,18.9
2016-06-25T04:28:01.636Z,18.9
2016-06-25T04:31:16.202Z,19
2016-06-25T04:34:35.805Z,19
2016-06-25T04:37:40.909Z,19.1
2016-06-25T04:40:55.602Z,19.2
2016-06-25T04:44:10.478Z,19.4
2016-06-25T04:47:24.877Z,19.5
2016-06-25T04:50:39.769Z,19.7
2016-06-25T04:53:54.025Z,19.9
2016-06-25T04:57:07.553Z,20.2
2016-06-25T05:00:22.494Z,20.4
2016-06-25T05:03:40.157Z,20.6
2016-06-25T05:06:43.214Z,20.8
2016-06-25T05:10:00.086Z,21
2016-06-25T05:13:15.021Z,21.1
2016-06-25T05:16:34.897Z,21.3
2016-06-25T05:19:40.156Z,21.4
2016-06-25T05:22:53.060Z,21.6
2016-06-25T05:26:07.739Z,21.8
2016-06-25T05:29:22.616Z,22
2016-06-25T05:32:42.506Z,22.1
2016-06-25T05:35:47.814Z,22.4
2016-06-25T05:38:57.792Z,22.6
2016-06-25T05:42:14.635Z,22.9
2016-06-25T05:45:34.630Z,23.1
2016-06-25T05:48:40.061Z,23.4
2016-06-25T05:51:55.094Z,23.6
2016-06-25T05:55:10.175Z,23.9
2016-06-25T05:58:24.952Z,24
2016-06-25T06:01:39.927Z,24.3
2016-06-25T06:04:54.937Z,24.6
2016-06-25T06:08:10.050Z,24.9
2016-06-25T06:11:25.126Z,25.2
2016-06-25T06:14:42.715Z,25.6
2016-06-25T06:17:48.309Z,26.1
2016-06-25T06:21:03.536Z,26.4
2016-06-25T06:24:18.879Z,26.8
2016-06-25T06:27:37.309Z,27.3
2016-06-25T06:30:43.003Z,27.6
2016-06-25T06:33:56.396Z,27.9
2016-06-25T06:37:13.873Z,28.5
2016-06-25T06:40:34.490Z,29.1
2016-06-25T06:43:40.279Z,29.5
2016-06-25T06:46:54.337Z,30
2016-06-25T06:50:09.631Z,30.6
2016-06-25T06:53:25.293Z,31.2
2016-06-25T06:56:38.669Z,31.4
2016-06-25T06:59:55.669Z,32
2016-06-25T07:03:11.010Z,32.6
2016-06-25T07:06:26.661Z,33
2016-06-25T07:09:42.359Z,33.2
2016-06-25T07:12:57.975Z,33.4
2016-06-25T07:16:11.945Z,33.5
2016-06-25T07:19:27.701Z,33.8
2016-06-25T07:22:41.181Z,34.1
2016-06-25T07:25:56.927Z,34.7
2016-06-25T07:29:12.536Z,35.2
2016-06-25T07:32:28.357Z,35.1
2016-06-25T07:35:44.212Z,35.2
2016-06-25T07:38:59.740Z,35.2
2016-06-25T07:42:15.501Z,35.4
2016-06-25T07:45:36.064Z,35.6
2016-06-25T07:48:42.131Z,35.5
2016-06-25T07:51:57.717Z,35.9
2016-06-25T07:55:13.214Z,36
2016-06-25T07:58:28.816Z,36.1
2016-06-25T08:01:44.333Z,35.9
2016-06-25T08:04:59.267Z,36.3
2016-06-25T08:08:15.086Z,36.6
2016-06-25T08:11:35.951Z,36.7
2016-06-25T08:14:42.113Z,36.7
2016-06-25T08:17:57.700Z,36.8
2016-06-25T08:21:13.207Z,36.9
2016-06-25T08:24:28.699Z,37.1
2016-06-25T08:27:44.288Z,37.4
2016-06-25T08:30:59.572Z,37.5
2016-06-25T08:34:15.023Z,37.6
2016-06-25T08:37:35.698Z,38
2016-06-25T08:40:41.607Z,38
2016-06-25T08:43:56.963Z,38.4
2016-06-25T08:47:11.530Z,38.4
2016-06-25T08:50:26.815Z,38.6
2016-06-25T08:53:42.304Z,38.8
2016-06-25T08:56:57.849Z,38.8
2016-06-25T09:00:13.159Z,38.5
2016-06-25T09:03:28.413Z,38.2
2016-06-25T09:06:43.268Z,38.2
2016-06-25T09:09:55.024Z,38.3
2016-06-25T09:13:10.061Z,38.6
2016-06-25T09:16:24.819Z,38.5
2016-06-25T09:19:39.908Z,38.5
2016-06-25T09:22:55.148Z,38.6
2016-06-25T09:26:10.230Z,38.4
2016-06-25T09:29:25.348Z,38
2016-06-25T09:32:40.254Z,37.7
2016-06-25T09:35:55.137Z,37.4
2016-06-25T09:39:10.237Z,37.3
2016-06-25T09:42:25.277Z,37.2
2016-06-25T09:45:40.113Z,37.1
2016-06-25T09:48:55.046Z,36.8
2016-06-25T09:52:09.919Z,37
2016-06-25T09:55:24.857Z,36.8
2016-06-25T09:58:40.025Z,36.4
2016-06-25T10:01:55.091Z,36.3
2016-06-25T10:05:06.924Z,36.3
2016-06-25T10:08:23.800Z,35.9
2016-06-25T10:11:41.849Z,35.7
2016-06-25T10:14:47.118Z,34.9
2016-06-25T10:17:59.511Z,34.2
2016-06-25T10:21:14.163Z,33.4
2016-06-25T10:24:28.744Z,32.8
2016-06-25T10:27:43.189Z,32.3
2016-06-25T10:30:58.028Z,31.9
2016-06-25T10:34:11.010Z,31.8
2016-06-25T10:37:26.150Z,31.8
2016-06-25T10:40:38.734Z,31.8
2016-06-25T10:43:55.603Z,31
2016-06-25T10:47:10.387Z,30.7
2016-06-25T10:50:25.278Z,30.7
2016-06-25T10:53:40.177Z,30.8
2016-06-25T10:56:55.102Z,30.8
2016-06-25T11:00:10.006Z,30.8
2016-06-25T11:03:23.707Z,30.7
2016-06-25T11:06:43.640Z,30.7
2016-06-25T11:09:48.823Z,30.6
2016-06-25T11:13:01.622Z,30.4
2016-06-25T11:16:18.374Z,30.4
2016-06-25T11:19:38.202Z,30.3
2016-06-25T11:22:43.382Z,30.3
2016-06-25T11:25:58.114Z,30.1
2016-06-25T11:29:12.907Z,29.9
2016-06-25T11:32:27.472Z,29.7
2016-06-25T11:35:42.226Z,29.6
2016-06-25T11:38:56.859Z,29.6
2016-06-25T11:42:11.844Z,29.8
2016-06-25T11:45:26.206Z,29.9
2016-06-25T11:48:41.070Z,30
2016-06-25T11:51:56.995Z,30.1
2016-06-25T11:55:10.840Z,30
2016-06-25T11:58:25.196Z,30
2016-06-25T12:01:39.860Z,29.8
2016-06-25T12:04:52.783Z,29.6
2016-06-25T12:08:05.607Z,28.9
2016-06-25T12:11:19.067Z,28.1
2016-06-25T12:14:36.213Z,27.2
2016-06-25T12:17:40.785Z,25.3
2016-06-25T12:20:55.183Z,24.3
2016-06-25T12:24:09.758Z,23.9
2016-06-25T12:27:24.390Z,24
2016-06-25T12:30:43.652Z,24.1
2016-06-25T12:33:48.700Z,24.4
2016-06-25T12:37:00.963Z,24.5
2016-06-25T12:40:15.831Z,24.7
2016-06-25T12:43:29.031Z,24.8
2016-06-25T12:46:43.775Z,24.9
2016-06-25T12:49:57.654Z,25
2016-06-25T12:53:12.405Z,25
2016-06-25T12:56:25.511Z,25.1
2016-06-25T12:59:40.390Z,25.3
2016-06-25T13:02:55.350Z,25.6
2016-06-25T13:06:10.355Z,25.7
2016-06-25T13:09:25.481Z,25.9
2016-06-25T13:12:40.045Z,26
2016-06-25T13:15:54.443Z,26.2
2016-06-25T13:19:09.314Z,26.2
2016-06-25T13:22:23.885Z,26.3
2016-06-25T13:25:43.400Z,26.3
2016-06-25T13:28:48.471Z,26.2
2016-06-25T13:32:03.289Z,26.2
2016-06-25T13:35:18.038Z,26.2
2016-06-25T13:38:37.989Z,26.3
2016-06-25T13:41:43.075Z,26.4
2016-06-25T13:44:57.926Z,26.6
2016-06-25T13:48:12.899Z,26.9
2016-06-25T13:51:27.635Z,27
2016-06-25T13:54:42.453Z,26.9
2016-06-25T13:57:57.140Z,27
2016-06-25T14:01:09.669Z,27
2016-06-25T14:04:22.125Z,27
2016-06-25T14:07:43.834Z,27
2016-06-25T14:10:49.111Z,26.9
2016-06-25T14:14:03.986Z,26.7
2016-06-25T14:17:18.838Z,26.5
2016-06-25T14:20:38.631Z,26.5
2016-06-25T14:23:43.873Z,26.5
2016-06-25T14:26:58.724Z,26.5
2016-06-25T14:30:13.584Z,26.5
2016-06-25T14:33:28.279Z,26.5
2016-06-25T14:36:43.011Z,26.5
2016-06-25T14:39:57.909Z,26.6
2016-06-25T14:43:12.716Z,26.7
2016-06-25T14:46:27.610Z,26.7
2016-06-25T14:49:42.467Z,26.7
2016-06-25T14:52:57.146Z,26.7
2016-06-25T14:56:11.812Z,26.7
2016-06-25T14:59:26.447Z,26.8
2016-06-25T15:02:41.553Z,27.2
2016-06-25T15:05:54.841Z,27.2
2016-06-25T15:09:09.830Z,27.1
2016-06-25T15:12:24.466Z,26.9
2016-06-25T15:15:44.230Z,26.7
2016-06-25T15:18:49.297Z,26.6
2016-06-25T15:22:04.177Z,26.4
2016-06-25T15:25:18.915Z,26.3
2016-06-25T15:28:38.701Z,26.3
2016-06-25T15:31:43.947Z,26.3
2016-06-25T15:34:55.350Z,26.2
2016-06-25T15:38:10.017Z,26.1
2016-06-25T15:41:24.785Z,25.6
2016-06-25T15:44:42.403Z,24.4
2016-06-25T15:47:47.131Z,23.8
2016-06-25T15:50:58.736Z,23.3
2016-06-25T15:54:13.313Z,23
2016-06-25T15:57:27.682Z,23
2016-06-25T16:00:42.125Z,22.9
2016-06-25T16:03:56.592Z,22.9
2016-06-25T16:07:11.337Z,23
2016-06-25T16:10:25.696Z,22.9
2016-06-25T16:13:45.088Z,22.6
2016-06-25T16:16:49.926Z,22.4
2016-06-25T16:20:04.241Z,22.3
2016-06-25T16:23:18.726Z,22.3
2016-06-25T16:26:38.135Z,22.1
2016-06-25T16:29:43.007Z,22
2016-06-25T16:32:57.322Z,21.8
2016-06-25T16:36:11.457Z,21.8
2016-06-25T16:39:25.794Z,21.8
2016-06-25T16:42:45.147Z,21.9
2016-06-25T16:45:50.153Z,22
2016-06-25T16:49:02.563Z,21.9
2016-06-25T16:52:19.183Z,21.8
2016-06-25T16:55:36.909Z,21.8
2016-06-25T16:58:41.782Z,21.9
2016-06-25T17:01:54.779Z,22
2016-06-25T17:05:06.939Z,22
2016-06-25T17:08:19.603Z,22.1
2016-06-25T17:11:41.082Z,22.1
2016-06-25T17:14:45.896Z,22.1
2016-06-25T17:18:00.451Z,22.2
2016-06-25T17:21:14.906Z,22.3
2016-06-25T17:24:29.150Z,22.4
2016-06-25T17:27:42.501Z,22.5
2016-06-25T17:30:57.123Z,22.6
2016-06-25T17:34:11.579Z,22.6
2016-06-25T17:37:22.986Z,22.5
2016-06-25T17:40:42.373Z,22.5
2016-06-25T17:43:47.294Z,22.6
2016-06-25T17:47:01.737Z,22.7
2016-06-25T17:50:15.872Z,22.7
2016-06-25T17:53:35.645Z,22.8
2016-06-25T17:56:40.708Z,22.8
2016-06-25T17:59:55.297Z,22.7
2016-06-25T18:03:08.554Z,22.8
2016-06-25T18:06:22.956Z,22.8
2016-06-25T18:09:42.356Z,22.8
2016-06-25T18:12:47.302Z,22.7
2016-06-25T18:16:01.943Z,22.7
2016-06-25T18:19:16.706Z,22.7
2016-06-25T18:22:36.103Z,22.7
2016-06-25T18:25:41.120Z,22.6
2016-06-25T18:28:55.794Z,22.6
2016-06-25T18:32:10.365Z,22.6
2016-06-25T18:35:25.103Z,22.6
2016-06-25T18:38:43.106Z,22.6
2016-06-25T18:41:48.017Z,22.6
2016-06-25T18:44:59.007Z,22.6
2016-06-25T18:48:15.790Z,22.5
2016-06-25T18:51:30.222Z,22.5
2016-06-25T18:54:42.995Z,22.6
2016-06-25T18:57:57.515Z,22.6
2016-06-25T19:01:12.122Z,22.5
2016-06-25T19:04:26.658Z,22.5
2016-06-25T19:07:40.970Z,22.5
2016-06-25T19:10:55.471Z,22.4
2016-06-25T19:14:10.106Z,22.3
2016-06-25T19:17:24.161Z,22.3
2016-06-25T19:20:43.773Z,22.2
2016-06-25T19:23:46.447Z,22.1
2016-06-25T19:27:03.202Z,22.1
2016-06-25T19:30:17.666Z,22
2016-06-25T19:33:35.806Z,21.9
2016-06-25T19:36:40.775Z,21.9
2016-06-25T19:39:53.863Z,21.8
2016-06-25T19:43:08.402Z,21.8
2016-06-25T19:46:22.803Z,21.8
2016-06-25T19:49:42.160Z,21.8
2016-06-25T19:52:47.020Z,21.7
2016-06-25T19:55:58.233Z,21.7
2016-06-25T19:59:12.588Z,21.7
2016-06-25T20:02:26.926Z,21.6
2016-06-25T20:05:41.337Z,21.6
2016-06-25T20:08:54.161Z,21.5
2016-06-25T20:12:08.759Z,21.4
2016-06-25T20:15:23.248Z,21.4
2016-06-25T20:18:41.559Z,21.4
2016-06-25T20:21:46.427Z,21.3
2016-06-25T20:25:00.820Z,21.3
2016-06-25T20:28:15.447Z,21.3
2016-06-25T20:31:29.970Z,21.2
2016-06-25T20:34:43.173Z,21.2
2016-06-25T20:37:57.645Z,21.2
2016-06-25T20:41:12.011Z,21.2
2016-06-25T20:44:26.463Z,21.2
2016-06-25T20:47:44.951Z,21.1
2016-06-25T20:50:49.761Z,21
2016-06-25T20:54:04.244Z,21
2016-06-25T20:57:18.759Z,21
2016-06-25T21:00:37.538Z,20.9
2016-06-25T21:03:42.297Z,20.9
2016-06-25T21:06:56.635Z,20.9
2016-06-25T21:10:10.986Z,20.8
2016-06-25T21:13:25.312Z,20.8
2016-06-25T21:16:42.963Z,20.7
2016-06-25T21:19:47.689Z,20.7
2016-06-25T21:23:02.170Z,20.7
2016-06-25T21:26:14.857Z,20.7
2016-06-25T21:29:36.165Z,20.7
2016-06-25T21:32:41.097Z,20.6
2016-06-25T21:35:55.314Z,20.6
2016-06-25T21:39:09.851Z,20.6
2016-06-25T21:42:24.083Z,20.5
2016-06-25T21:45:43.292Z,20.5
2016-06-25T21:48:48.174Z,20.5
2016-06-25T21:52:01.954Z,20.5
2016-06-25T21:55:16.629Z,20.6
2016-06-25T21:58:36.143Z,20.6
2016-06-25T22:01:45.972Z,20.6
2016-06-25T22:04:50.791Z,20.6
2016-06-25T22:08:05.303Z,20.6
2016-06-25T22:11:19.594Z,20.6
2016-06-25T22:14:39.280Z,20.6
2016-06-25T22:17:44.074Z,20.5
2016-06-25T22:20:57.121Z,20.5
2016-06-25T22:24:11.574Z,20.5
2016-06-25T22:27:25.827Z,20.4
2016-06-25T22:30:45.299Z,20.4
2016-06-25T22:33:50.143Z,20.3
2016-06-25T22:37:04.727Z,20.3
2016-06-25T22:40:19.268Z,20.2
2016-06-25T22:43:38.733Z,20.2
2016-06-25T22:46:43.631Z,20.2
2016-06-25T22:49:55.055Z,20.2
2016-06-25T22:53:09.709Z,20.1
2016-06-25T22:56:21.779Z,20.1
2016-06-25T22:59:41.203Z,20
2016-06-25T23:02:46.137Z,20
2016-06-25T23:05:58.880Z,20
2016-06-25T23:09:17.543Z,19.9
2016-06-25T23:12:27.856Z,19.9
2016-06-25T23:15:42.376Z,19.8
2016-06-25T23:18:53.930Z,19.8
2016-06-25T23:22:08.354Z,19.8
2016-06-25T23:25:23.050Z,19.8
2016-06-25T23:28:42.278Z,19.8
2016-06-25T23:31:47.014Z,19.7
2016-06-25T23:35:01.098Z,19.7
2016-06-25T23:38:15.658Z,19.7
2016-06-25T23:41:30.272Z,19.6
2016-06-25T23:44:42.527Z,19.6
2016-06-25T23:47:57.067Z,19.5
2016-06-25T23:51:11.666Z,19.4
2016-06-25T23:54:26.013Z,19.3
2016-06-25T23:57:45.253Z,19.2
